NCAR-RAP Real-Time Weather Data

Output produced by METARs form (10 April 2020  06:59 UTC)
found at http://weather.rap.ucar.edu/surface/
 
KFLG 100557Z AUTO 00000KT 10SM CLR M03/M06 A3010 RMK AO2 SLP177 T10281056 10083 21028 50001
KFLG 100457Z AUTO 00000KT 10SM CLR M02/M06 A3010 RMK AO2 SLP178 T10221056
KFLG 100357Z 00000KT 10SM CLR M01/M05 A3011 RMK AO2 SLP181 T10061050
KFLG 100257Z 00000KT 10SM CLR 02/M04 A3009 RMK AO2 SLP173 T00171044 53006
KFLG 100157Z 25005KT 10SM CLR 05/M06 A3008 RMK AO2 SLP160 T00501056
KFLG 100057Z 22008KT 10SM CLR 07/M06 A3007 RMK AO2 SLP152 T00721061
KFLG 092357Z 24008KT 10SM CLR 08/M07 A3007 RMK AO2 SLP148 T00781072 10089 20033 56009
KFLG 092257Z 22007G16KT 180V260 10SM FEW055 08/M08 A3007 RMK AO2 SLP149 T00831078
KFLG 092157Z 21009G17KT 10SM FEW055 08/M08 A3009 RMK AO2 SLP151 T00831078
KFLG 092057Z 23008KT 10SM FEW050 07/M06 A3010 RMK AO2 SLP160 T00721056 58015
KFLG 091957Z 18010KT 10SM FEW042 06/M07 A3012 RMK AO2 SLP170 T00611067
KFLG 091857Z 19006KT 10SM CLR 05/M07 A3014 RMK AO2 SLP176 T00501072
KFLG 091757Z VRB05KT 10SM BKN032 03/M04 A3016 RMK AO2 SLP182 T00331044 10044 21011 51010
KFLG 091704Z 22011KT 10SM BKN032 03/M04 A3016 RMK AO2 T00331044
KFLG 091657Z 20012KT 10SM BKN025 03/M04 A3016 RMK AO2 SLP182 T00281044
KFLG 091622Z 20007KT 180V240 10SM BKN025 01/M03 A3014 RMK AO2 T00111033
KFLG 091604Z 22011KT 10SM CLR 01/M04 A3014 RMK AO2 T00061039
KFLG 091557Z 21011KT 10SM BKN014 01/M03 A3013 RMK AO2 SLP177 T00111028
KFLG 091519Z 21009KT 10SM BKN014 00/M03 A3012 RMK AO2 T00001028
KFLG 091457Z 22012KT 10SM CLR 01/M02 A3012 RMK AO2 SLP169 T00061017 53009
KFLG 091357Z 25004KT 10SM FEW014 SCT020 M01/M03 A3012 RMK AO2 SLP171 T10111028
KFLG 091346Z 23008KT 10SM SCT013 BKN020 M01/M03 A3011 RMK AO2 T10111028
KFLG 091257Z VRB03KT 10SM BKN010 OVC015 M01/M02 A3009 RMK AO2 CIG 007V012 SLP151 T10061022
KFLG 091204Z AUTO 20006KT 10SM OVC009 M01/M02 A3006 RMK AO2 CIG 007V012 T10111022
KFLG 091157Z AUTO 21004KT 10SM BKN010 OVC014 M01/M02 A3006 RMK AO2 CIG 007V012 SLP135 60007 70023 T10061022 10028 21006 55000
KFLG 091057Z AUTO VRB04KT 10SM BKN010 OVC015 M01/M02 A3006 RMK AO2 SNE37 CIG 007V012 SLP130 P0000 T10061017
KFLG 091047Z AUTO VRB04KT 10SM SCT005 OVC010 M01/M02 A3006 RMK AO2 SNE37 CIG 008V012 P0000 T10061017
KFLG 090957Z AUTO VRB06KT 6SM -SN BR OVC005 00/M01 A3005 RMK AO2 SLP129 P0001 T00001011
KFLG 090954Z AUTO 26008KT 3SM -SN BR OVC005 00/M01 A3005 RMK AO2 P0001
KFLG 090943Z AUTO 00000KT 1 3/4SM -SN BR OVC005 00/M01 A3005 RMK AO2 CIG 004V009 P0001 T00001011
KFLG 090920Z AUTO VRB05KT 3SM -SN BR OVC005 00/M01 A3006 RMK AO2 CIG 004V010 P0001 T00001006
KFLG 090907Z AUTO 24009KT 1 3/4SM -SN BR BKN007 OVC010 00/M01 A3006 RMK AO2 P0000 T00001006